Flight Track Log - Related Links

Times and Time Zones

All times are in EST time to prevent confusion due to time zone crossing. See the FIN666 flight status page for this flight to view local times or setup timezone preferences in your user account.

Time Position Orientation Groundspeed Altitude Reporting Facility
EST Latitude Longitude Course Direction KTS MPH feet Rate Location/Type
Mon 07:24:00 AM 55.8859 13.2108 49° Northeast  Level Estimated
Mon 07:25:00 AM 55.9525 13.3507 50° Northeast  Level Estimated
Mon 07:26:00 AM 56.0207 13.4949 50° Northeast  Level Estimated
Mon 07:27:00 AM 56.0887 13.6395 50° Northeast  Level Estimated
Mon 07:28:00 AM 56.1566 13.7846 50° Northeast  Level Estimated
Mon 07:29:00 AM 56.2242 13.9302 50° Northeast  Level Estimated
Mon 07:30:00 AM 56.2918 14.0763 50° Northeast  Level Estimated
Mon 07:31:00 AM 56.3591 14.2230 50° Northeast  Level Estimated
Mon 07:32:00 AM 56.4263 14.3702 50° Northeast  Level Estimated
Mon 07:33:00 AM 56.4932 14.5179 51° Northeast  Level Estimated
Mon 07:34:00 AM 56.5601 14.6661 51° Northeast  Level Estimated
Mon 07:35:00 AM 56.6267 14.8148 51° Northeast  Level Estimated
Mon 07:36:00 AM 56.6931 14.9641 51° Northeast  Level Estimated
Mon 07:37:00 AM 56.7594 15.1139 51° Northeast  Level Estimated
Mon 07:38:00 AM 56.8255 15.2642 51° Northeast  Level Estimated
Mon 07:39:00 AM 56.8914 15.4151 51° Northeast  Level Estimated
Mon 07:40:00 AM 56.9572 15.5665 51° Northeast  Level Estimated
Mon 07:41:00 AM 57.0227 15.7184 52° Northeast  Level Estimated
Mon 07:42:00 AM 57.0881 15.8709 52° Northeast  Level Estimated
Mon 07:43:00 AM 57.1533 16.0239 52° Northeast  Level Estimated
Mon 07:44:00 AM 57.2183 16.1774 52° Northeast  Level Estimated
Mon 07:45:00 AM 57.2831 16.3315 52° Northeast  Level Estimated
Mon 07:46:00 AM 57.3477 16.4861 52° Northeast  Level Estimated
Mon 07:47:00 AM 57.4121 16.6413 52° Northeast  Level Estimated
Mon 07:48:00 AM 57.4763 16.7970 52° Northeast  Level Estimated
Mon 07:49:00 AM 57.5412 16.9553 53° Northeast  Level Estimated
Mon 07:50:00 AM 57.6059 17.1142 53° Northeast  Level Estimated
Mon 07:51:00 AM 57.6704 17.2737 53° Northeast  Level Estimated
Mon 07:52:00 AM 57.7347 17.4338 53° Northeast  Level Estimated
Mon 07:53:00 AM 57.7988 17.5944 53° Northeast  Level Estimated
Mon 07:54:00 AM 57.8627 17.7555 53° Northeast  Level Estimated
Mon 07:55:00 AM 57.9264 17.9173 53° Northeast  Level Estimated
Mon 07:56:00 AM 57.9899 18.0796 54° Northeast  Level Estimated
Mon 07:57:00 AM 58.0531 18.2425 54° Northeast  Level Estimated
Mon 07:58:00 AM 58.1162 18.4060 54° Northeast  Level Estimated
Mon 07:59:00 AM 58.1790 18.5701 54° Northeast  Level Estimated
Mon 08:00:00 AM 58.2417 18.7347 54° Northeast  Level Estimated
Mon 08:01:00 AM 58.3041 18.8999 54° Northeast  Level Estimated
Mon 08:02:00 AM 58.3663 19.0657 54° Northeast  Level Estimated
Mon 08:03:00 AM 58.4283 19.2321 55° Northeast  Level Estimated
Mon 08:04:00 AM 58.4901 19.3991 55° Northeast  Level Estimated
Mon 08:05:00 AM 58.5517 19.5666 55° Northeast  Level Estimated
Mon 08:06:00 AM 58.6130 19.7348 55° Northeast  Level Estimated
Mon 08:07:00 AM 58.6741 19.9035 55° Northeast  Level Estimated
Mon 08:08:00 AM 58.7350 20.0729 55° Northeast  Level Estimated
Mon 08:09:00 AM 58.7957 20.2428 55° Northeast  Level Estimated
Mon 08:10:00 AM 58.8562 20.4133 56° Northeast  Level Estimated
Mon 08:11:00 AM 58.9164 20.5844 56° Northeast  Level Estimated
Mon 08:12:00 AM 58.9764 20.7561 56° Northeast  Level Estimated
Mon 08:13:00 AM 59.0362 20.9284 56° Northeast  Level Estimated
Mon 08:14:00 AM 59.0957 21.1014 56° Northeast  Level Estimated
Mon 08:15:00 AM 59.1551 21.2749 56° Northeast  Level Estimated
Mon 08:16:00 AM 59.2141 21.4490 56° Northeast  Level Estimated
Mon 08:17:00 AM 59.2730 21.6237 57° Northeast  Level Estimated
Mon 08:18:00 AM 59.3308 21.7967 57° Northeast  Level Estimated
Mon 08:19:00 AM 59.3885 21.9703 57° Northeast  Level Estimated
Mon 08:20:00 AM 59.4458 22.1445 57° Northeast  Level Estimated
Mon 08:21:00 AM 59.5030 22.3193 57° Northeast  Level Estimated
Mon 08:22:00 AM 59.5599 22.4946 57° Northeast  Level Estimated
Mon 08:23:00 AM 59.6166 22.6706 57° Northeast  Level Estimated
Mon 08:24:00 AM 59.6730 22.8472 58° Northeast  Level Estimated
Mon 08:25:00 AM 59.7293 23.0243 58° Northeast  Level Estimated
Mon 08:26:00 AM 59.7852 23.2020 58° Northeast  Level Estimated
Mon 08:27:00 AM 59.8410 23.3804 58° Northeast  Level Estimated
Mon 08:28:00 AM 59.8964 23.5593 58° Northeast  Level Estimated
Mon 08:29:00 AM 59.9517 23.7388 58° Northeast  Level Estimated
Mon 08:30:00 AM 60.0067 23.9190 59° Northeast  Level Estimated
Mon 08:31:00 AM 60.0614 24.0997 59° Northeast  Level Estimated
Mon 08:32:00 AM 60.1159 24.2810 59° Northeast  Level Estimated
Mon 08:33:00 AM 60.1702 24.4630 59° Northeast  Level Estimated
Mon 08:34:00 AM 60.2242 24.6455 59° Northeast  Level Estimated
Mon 08:35:00 AM 60.2780 24.8286 59° Northeast  Level Estimated
Mon 08:36:00 AM 60.3172 24.9633 59° Northeast  Level Estimated
Mon 08:37:00 AM 60.3172 24.9633 37° Northeast  Level Estimated
Mon 08:38:00 AM 60.3172 24.9633 37° Northeast  Level Estimated
Mon 08:39:00 AM 60.3172 24.9633 37° Northeast  Level Estimated
Mon 08:40:00 AM 60.3172 24.9633 37° Northeast  Level Estimated
Mon 08:41:00 AM 60.3172 24.9633 37° Northeast  Level Estimated
Mon 08:42:00 AM 60.3172 24.9633 37° Northeast  Level Estimated
Mon 08:43:00 AM 60.3172 24.9633 37° Northeast  Level Estimated
Mon 08:44:00 AM 60.3172 24.9633 37° Northeast  Level Estimated
Mon 08:45:00 AM 60.3172 24.9633 37° Northeast  Level Estimated
Mon 08:46:00 AM 60.3172 24.9633 37° Northeast  Level Estimated
Mon 08:47:00 AM 60.3172 24.9633 37° Northeast  Level Estimated
Mon 08:48:00 AM 60.3172 24.9633 37° Northeast  Level Estimated

Login

Don't have an account? Register now (free) for customized features, flight alerts, and more!